Time;durP1;ratioP1;P1;durP2;ratioP2;P2;SDS_P1;SDS_P2;PMS_P1;PMS_P2;Temp;Humidity;BMP_temperature;BMP_pressure;BME280_temperature;BME280_humidity;BME280_pressure;Samples;Min_cycle;Max_cycle;Signal;HPM_P1;HPM_P2
2023/09/13 00:02:16;;;;;;;;;;;;;;;23.92;52.20;101175.88;4959940;28;124697;-76
2023/09/13 00:04:43;;;;;;;;;;;;;;;23.87;52.21;101179.91;4971349;28;125354;-75
2023/09/13 00:07:10;;;;;;;;;;;;;;;23.84;52.29;101169.34;4966757;28;115625;-75
2023/09/13 00:09:41;;;;;;;;;;;;;;;23.83;52.32;101173.06;4952222;28;114865;-76
2023/09/13 00:12:08;;;;;;;;;;;;;;;23.83;52.39;101162.25;4965303;28;123876;-75
2023/09/13 00:14:35;;;;;;;;;;;;;;;23.83;52.60;101164.97;4967888;28;123128;-76
2023/09/13 00:17:02;;;;;;;;;;;;;;;23.83;52.35;101173.06;4961651;28;113730;-76
2023/09/13 00:19:30;;;;;;;;;;;;;;;23.83;52.57;101167.66;4970486;28;113715;-75
2023/09/13 00:21:57;;;;;;;;;;;;;;;23.82;52.31;101174.06;4969716;28;122188;-75
2023/09/13 00:24:24;;;;;;;;;;;;;;;23.82;52.34;101178.63;4967195;28;124963;-75
2023/09/13 00:26:51;;;;;;;;;;;;;;;23.80;52.32;101178.78;4960551;28;114375;-76
2023/09/13 00:29:18;;;;;;;;;;;;;;;23.77;52.57;101173.66;4961490;28;113352;-75
2023/09/13 00:31:45;;;;;;;;;;;;;;;23.75;52.35;101183.72;4958366;28;123014;-75
2023/09/13 00:34:13;;;;;;;;;;;;;;;23.73;52.58;101184.88;4967946;28;123583;-75
2023/09/13 00:36:40;;;;;;;;;;;;;;;23.69;52.53;101177.06;4967632;28;113453;-76
2023/09/13 00:39:07;;;;;;;;;;;;;;;23.68;52.50;101179.94;4966714;28;114196;-76
2023/09/13 00:41:34;;;;;;;;;;;;;;;23.66;52.51;101173.81;4961973;28;124106;-75
2023/09/13 00:44:01;;;;;;;;;;;;;;;23.62;52.46;101175.09;4971491;28;125630;-76
2023/09/13 00:46:28;;;;;;;;;;;;;;;23.58;52.47;101179.09;4969377;28;114649;-76
2023/09/13 00:48:55;;;;;;;;;;;;;;;23.56;52.76;101181.09;4970734;28;114125;-77
2023/09/13 00:51:23;;;;;;;;;;;;;;;23.51;52.49;101182.38;4966013;28;123381;-77
2023/09/13 00:53:50;;;;;;;;;;;;;;;23.48;52.53;101174.56;4964102;28;122074;-77
2023/09/13 00:56:18;;;;;;;;;;;;;;;23.46;52.68;101179.25;4958571;28;116373;-76
2023/09/13 00:58:47;;;;;;;;;;;;;;;23.43;52.65;101182.25;4969296;28;115077;-75
2023/09/13 01:01:15;;;;;;;;;;;;;;;23.40;52.83;101182.53;4963564;28;125348;-75
2023/09/13 01:03:42;;;;;;;;;;;;;;;23.36;52.59;101186.53;4962543;28;123903;-76
2023/09/13 01:06:11;;;;;;;;;;;;;;;23.32;52.69;101182.44;4964297;28;113737;-76
2023/09/13 01:08:41;;;;;;;;;;;;;;;23.29;52.63;101190.81;4970584;28;113952;-76
2023/09/13 01:11:08;;;;;;;;;;;;;;;23.25;52.93;101190.25;4961305;28;123681;-75
2023/09/13 01:13:35;;;;;;;;;;;;;;;23.24;52.74;101193.06;4957957;28;123294;-75
2023/09/13 01:16:18;;;;;;;;;;;;;;;23.21;53.00;101187.97;4960396;28;114156;-76
2023/09/13 01:18:48;;;;;;;;;;;;;;;23.22;53.01;101181.56;4958344;28;112266;-75
2023/09/13 01:21:41;;;;;;;;;;;;;;;23.21;52.88;101185.28;4962877;28;125110;-76
2023/09/13 01:24:33;;;;;;;;;;;;;;;23.19;53.08;101184.53;4923458;28;124135;-75
2023/09/13 01:27:13;;;;;;;;;;;;;;;23.19;52.89;101184.53;4960164;28;115068;-75
2023/09/13 01:29:41;;;;;;;;;;;;;;;23.19;53.11;101184.53;4967528;28;113691;-75
2023/09/13 01:32:08;;;;;;;;;;;;;;;23.17;53.11;101187.41;4970412;28;123612;-75
2023/09/13 01:34:36;;;;;;;;;;;;;;;;;;4957500;28;124465;-75
2023/09/13 01:37:04;;;;;;;;;;;;;;;23.20;53.16;101180.84;4968749;28;116280;-76
2023/09/13 01:39:31;;;;;;;;;;;;;;;23.20;53.18;101186.25;4969830;28;113757;-76
2023/09/13 01:42:03;;;;;;;;;;;;;;;23.22;53.19;101184.25;4968266;28;124217;-75
2023/09/13 01:44:31;;;;;;;;;;;;;;;23.21;53.10;101182.56;4972333;28;123442;-76
2023/09/13 01:46:59;;;;;;;;;;;;;;;23.21;53.20;101193.38;4969643;28;115759;-75
2023/09/13 01:49:26;;;;;;;;;;;;;;;23.21;53.25;101193.38;4970091;28;114238;-76
2023/09/13 01:51:53;;;;;;;;;;;;;;;23.21;53.11;101198.78;4963186;28;123246;-76
2023/09/13 01:54:20;;;;;;;;;;;;;;;23.20;53.27;101197.06;4966415;28;122413;-75
2023/09/13 01:56:47;;;;;;;;;;;;;;;23.20;53.17;101197.06;4967161;28;114627;-76
2023/09/13 01:59:14;;;;;;;;;;;;;;;23.20;53.16;101199.78;4968330;28;112891;-76
2023/09/13 02:01:41;;;;;;;;;;;;;;;23.22;53.26;101205.88;4962539;28;123612;-76
2023/09/13 02:04:09;;;;;;;;;;;;;;;23.23;53.33;101213.00;4959480;28;123954;-76
2023/09/13 02:06:36;;;;;;;;;;;;;;;23.23;53.16;101207.59;4968655;28;114415;-76
2023/09/13 02:09:03;;;;;;;;;;;;;;;23.23;53.38;101207.59;4965610;28;113696;-76
2023/09/13 02:11:31;;;;;;;;;;;;;;;23.21;53.21;101209.59;4946364;28;125346;-76
2023/09/13 02:13:58;;;;;;;;;;;;;;;23.19;53.36;101206.16;4967538;28;124299;-76
2023/09/13 02:16:25;;;;;;;;;;;;;;;23.20;53.23;101207.88;4953633;28;113718;-76
2023/09/13 02:18:52;;;;;;;;;;;;;;;23.19;53.41;101208.84;4959966;28;113834;-76
2023/09/13 02:21:20;;;;;;;;;;;;;;;23.18;53.29;101215.28;4958017;28;123591;-76
2023/09/13 02:23:47;;;;;;;;;;;;;;;23.16;53.31;101218.13;4961699;28;123229;-75
2023/09/13 02:26:21;;;;;;;;;;;;;;;23.15;53.33;101220.94;4964515;28;114622;-76
2023/09/13 02:28:51;;;;;;;;;;;;;;;23.13;53.34;101224.66;4945545;28;113265;-76
2023/09/13 02:31:36;;;;;;;;;;;;;;;23.11;53.44;101221.25;4964817;28;123622;-76
2023/09/13 02:34:04;;;;;;;;;;;;;;;23.10;53.42;101219.53;4952257;28;125150;-76
2023/09/13 02:36:31;;;;;;;;;;;;;;;23.07;53.39;101219.81;4959858;28;115293;-75
2023/09/13 02:38:58;;;;;;;;;;;;;;;23.07;53.58;101218.97;4962727;28;114419;-76
2023/09/13 02:41:25;;;;;;;;;;;;;;;23.07;53.66;101217.09;4958288;28;123550;-76
2023/09/13 02:43:52;;;;;;;;;;;;;;;23.07;53.66;101224.38;4976000;28;124383;-76
2023/09/13 02:46:19;;;;;;;;;;;;;;;23.06;53.66;101223.53;4955553;28;114294;-76
2023/09/13 02:48:46;;;;;;;;;;;;;;;23.05;53.64;101215.56;4960817;28;114517;-76
2023/09/13 02:51:14;;;;;;;;;;;;;;;23.04;53.67;101220.09;4948633;28;124291;-76
2023/09/13 02:53:41;;;;;;;;;;;;;;;23.04;53.56;101225.50;4964285;28;123197;-76
2023/09/13 02:56:09;;;;;;;;;;;;;;;23.03;53.62;101223.78;4971409;28;115216;-76
2023/09/13 02:58:37;;;;;;;;;;;;;;;23.01;53.74;101220.34;4969175;28;112221;-75
2023/09/13 03:01:10;;;;;;;;;;;;;;;22.99;53.63;101233.16;4968503;28;123195;-76
2023/09/13 03:03:39;;;;;;;;;;;;;;;22.97;53.69;101229.72;4958098;28;123167;-76
2023/09/13 03:06:11;;;;;;;;;;;;;;;22.95;53.69;101237.13;4969114;28;115844;-76
2023/09/13 03:08:40;;;;;;;;;;;;;;;22.93;53.78;101234.56;4967034;28;114857;-75
2023/09/13 03:11:09;;;;;;;;;;;;;;;22.94;53.79;101238.09;4964948;28;124444;-75
2023/09/13 03:13:36;;;;;;;;;;;;;;;22.93;53.90;101233.72;4964614;28;124375;-75
2023/09/13 03:16:23;;;;;;;;;;;;;;;22.94;53.91;101224.59;4953728;28;112656;-76
2023/09/13 03:18:51;;;;;;;;;;;;;;;22.96;53.82;101225.31;4959080;28;113965;-76
2023/09/13 03:21:23;;;;;;;;;;;;;;;22.96;53.95;101228.00;4969207;28;123729;-76
2023/09/13 03:23:50;;;;;;;;;;;;;;;22.97;53.89;101229.72;4963726;28;124193;-75
2023/09/13 03:26:22;;;;;;;;;;;;;;;22.97;53.91;101235.13;4955654;28;116662;-76
2023/09/13 03:28:52;;;;;;;;;;;;;;;22.97;53.91;101229.72;4959064;28;114800;-76
2023/09/13 03:31:21;;;;;;;;;;;;;;;22.96;54.02;101233.41;4969175;28;124455;-75
2023/09/13 03:33:50;;;;;;;;;;;;;;;22.95;54.08;101237.13;4966438;28;124253;-76
2023/09/13 03:36:19;;;;;;;;;;;;;;;22.95;53.89;101245.22;4970456;28;107661;-76
2023/09/13 03:38:51;;;;;;;;;;;;;;;22.93;54.01;101244.53;4967882;28;113392;-76
2023/09/13 03:41:21;;;;;;;;;;;;;;;22.92;54.05;101246.38;4970007;28;125219;-75
2023/09/13 03:43:49;;;;;;;;;;;;;;;22.90;53.97;101245.63;4958767;28;124261;-76
2023/09/13 03:46:16;;;;;;;;;;;;;;;22.88;53.92;101241.38;4970834;28;114027;-76
2023/09/13 03:48:45;;;;;;;;;;;;;;;22.86;54.06;101237.97;4969806;28;113017;-76
2023/09/13 03:51:16;;;;;;;;;;;;;;;22.83;53.92;101239.09;4979368;28;124920;-76
2023/09/13 03:53:44;;;;;;;;;;;;;;;22.81;54.03;101240.22;4969798;28;124348;-76
2023/09/13 03:56:12;;;;;;;;;;;;;;;22.80;54.05;101243.94;4972300;28;115350;-76
2023/09/13 03:58:40;;;;;;;;;;;;;;;22.79;54.25;101247.59;4973576;28;112883;-76
2023/09/13 04:01:07;;;;;;;;;;;;;;;22.78;54.17;101251.31;4968912;28;124466;-76
2023/09/13 04:03:34;;;;;;;;;;;;;;;22.76;54.17;101248.75;4963839;28;124094;-76
2023/09/13 04:06:02;;;;;;;;;;;;;;;22.76;54.22;101256.00;4969805;28;115062;-76
2023/09/13 04:08:29;;;;;;;;;;;;;;;22.74;54.26;101251.59;4964943;28;114887;-76
2023/09/13 04:10:56;;;;;;;;;;;;;;;22.73;54.28;101244.50;4954737;28;123745;-76
2023/09/13 04:13:23;;;;;;;;;;;;;;;22.70;54.12;101244.75;4964542;28;125380;-75
2023/09/13 04:15:51;;;;;;;;;;;;;;;22.69;54.16;101243.03;4955007;28;116724;-75
2023/09/13 04:18:18;;;;;;;;;;;;;;;22.67;54.35;101245.03;4956112;28;115415;-76
2023/09/13 04:20:49;;;;;;;;;;;;;;;22.66;54.27;101248.72;4967984;28;125216;-76
2023/09/13 04:23:17;;;;;;;;;;;;;;;22.63;54.22;101249.00;4969439;28;124872;-75
2023/09/13 04:25:44;;;;;;;;;;;;;;;22.60;54.30;101251.97;4964743;28;115289;-76
2023/09/13 04:28:12;;;;;;;;;;;;;;;22.57;54.20;101254.13;4973341;28;114017;-76
2023/09/13 04:30:41;;;;;;;;;;;;;;;22.55;54.34;101251.53;4966530;28;124720;-76
2023/09/13 04:33:08;;;;;;;;;;;;;;;22.54;54.41;101260.63;4966520;28;123714;-75
2023/09/13 04:35:37;;;;;;;;;;;;;;;22.53;54.27;101258.94;4944321;28;114703;-75
2023/09/13 04:38:05;;;;;;;;;;;;;;;22.52;54.35;101254.50;4963384;28;114109;-76
2023/09/13 04:40:32;;;;;;;;;;;;;;;22.49;54.25;101252.06;4956334;28;124845;-76
2023/09/13 04:43:06;;;;;;;;;;;;;;;22.48;54.36;101250.38;4965479;28;122831;-76
2023/09/13 04:45:34;;;;;;;;;;;;;;;22.45;54.28;101253.34;4964301;28;115042;-76
2023/09/13 04:48:02;;;;;;;;;;;;;;;22.43;54.40;101252.63;4979234;28;115508;-76
2023/09/13 04:50:29;;;;;;;;;;;;;;;22.42;54.44;101256.31;4968841;28;124929;-76
2023/09/13 04:52:56;;;;;;;;;;;;;;;22.41;54.60;101254.59;4969162;28;125436;-75
2023/09/13 04:55:26;;;;;;;;;;;;;;;22.41;54.57;101260.00;4972096;28;116474;-75
2023/09/13 04:57:53;;;;;;;;;;;;;;;22.41;54.54;101260.84;4969662;28;112130;-76
2023/09/13 05:00:21;;;;;;;;;;;;;;;22.42;54.49;101259.03;4968298;28;125714;-76
2023/09/13 05:02:48;;;;;;;;;;;;;;;22.41;54.61;101262.69;4969512;28;124533;-76
2023/09/13 05:05:18;;;;;;;;;;;;;;;22.40;54.58;101252.91;4955269;28;116017;-76
2023/09/13 05:07:45;;;;;;;;;;;;;;;22.40;54.59;101266.41;4962114;28;114541;-76
2023/09/13 05:10:12;;;;;;;;;;;;;;;22.41;54.70;101260.00;4957252;28;123569;-76
2023/09/13 05:12:39;;;;;;;;;;;;;;;22.40;54.55;101269.09;4959862;28;122755;-76
2023/09/13 05:15:06;;;;;;;;;;;;;;;22.38;54.72;101271.06;4954555;28;115291;-76
2023/09/13 05:17:33;;;;;;;;;;;;;;;22.37;54.61;101272.06;4967192;28;113459;-76
2023/09/13 05:20:00;;;;;;;;;;;;;;;22.34;54.69;101271.34;4969579;28;125480;-76
2023/09/13 05:22:27;;;;;;;;;;;;;;;22.35;54.61;101278.44;4970260;28;123705;-76
2023/09/13 05:24:54;;;;;;;;;;;;;;;22.34;54.66;101279.44;4969493;28;115133;-76
2023/09/13 05:27:21;;;;;;;;;;;;;;;22.34;54.72;101282.16;4970510;28;113981;-76
2023/09/13 05:29:48;;;;;;;;;;;;;;;22.35;54.78;101273.03;4967458;28;124405;-76
2023/09/13 05:32:15;;;;;;;;;;;;;;;22.37;54.73;101280.16;4962283;28;123479;-76
2023/09/13 05:34:42;;;;;;;;;;;;;;;22.34;54.81;101276.75;4966780;28;115274;-76
2023/09/13 05:37:09;;;;;;;;;;;;;;;22.35;54.77;101283.00;4967124;28;115167;-75
2023/09/13 05:39:36;;;;;;;;;;;;;;;22.37;54.78;101282.88;4966026;28;125168;-75
2023/09/13 05:42:03;;;;;;;;;;;;;;;22.34;55.03;101276.75;4961577;28;124229;-75
2023/09/13 05:44:33;;;;;;;;;;;;;;;22.34;54.96;101282.16;4967587;28;114823;-75
2023/09/13 05:47:00;;;;;;;;;;;;;;;22.40;55.01;101285.31;4962247;28;114732;-75
2023/09/13 05:49:27;;;;;;;;;;;;;;;22.43;54.95;101290.41;4955803;28;124823;-76
2023/09/13 05:51:55;;;;;;;;;;;;;;;22.45;54.91;101288.44;4962232;28;124853;-76
2023/09/13 05:54:22;;;;;;;;;;;;;;;22.47;54.85;101297.25;4962569;28;115067;-76
2023/09/13 05:56:53;;;;;;;;;;;;;;;22.47;54.88;101297.25;4958041;28;115020;-75
2023/09/13 05:59:20;;;;;;;;;;;;;;;22.48;55.04;101297.13;4970351;28;124550;-76
2023/09/13 06:01:47;;;;;;;;;;;;;;;22.49;54.94;101300.66;4958913;28;123955;-75
2023/09/13 06:04:14;;;;;;;;;;;;;;;22.51;55.04;101293.31;4956158;28;114605;-75
2023/09/13 06:06:42;;;;;;;;;;;;;;;22.51;54.89;101293.31;4958904;28;113674;-75
2023/09/13 06:09:10;;;;;;;;;;;;;;;22.53;54.93;101304.81;4947983;28;122119;-75
2023/09/13 06:11:37;;;;;;;;;;;;;;;22.53;54.93;101304.81;4966187;28;125767;-75
2023/09/13 06:14:10;;;;;;;;;;;;;;;22.56;55.02;101320.72;4964961;28;115226;-75
2023/09/13 06:16:38;;;;;;;;;;;;;;;22.56;54.96;101318.03;4969022;28;114093;-76
2023/09/13 06:19:05;;;;;;;;;;;;;;;22.58;54.95;101321.44;4964853;28;124524;-76
2023/09/13 06:21:32;;;;;;;;;;;;;;;22.60;55.11;101335.66;4965802;28;123835;-75
2023/09/13 06:23:59;;;;;;;;;;;;;;;22.60;55.06;101341.06;4951093;28;114771;-76
2023/09/13 06:26:26;;;;;;;;;;;;;;;22.61;55.05;101342.78;4952550;28;112915;-76
2023/09/13 06:28:54;;;;;;;;;;;;;;;22.61;55.02;101350.88;4963468;28;124421;-76
2023/09/13 06:31:21;;;;;;;;;;;;;;;22.62;55.10;101344.50;4958489;28;123732;-76
2023/09/13 06:33:59;;;;;;;;;;;;;;;22.64;55.02;101347.94;4958128;28;114340;-76
2023/09/13 06:36:48;;;;;;;;;;;;;;;22.65;55.10;101349.63;4965956;28;113112;-76
2023/09/13 06:39:18;;;;;;;;;;;;;;;22.67;55.20;101352.19;4956472;28;123879;-76
2023/09/13 06:41:45;;;;;;;;;;;;;;;22.66;55.20;101351.34;4961057;28;124679;-76
2023/09/13 06:44:13;;;;;;;;;;;;;;;22.67;55.09;101363.84;4964366;28;115158;-76
2023/09/13 06:46:41;;;;;;;;;;;;;;;22.69;55.12;101367.25;4964393;28;115097;-76
2023/09/13 06:49:16;;;;;;;;;;;;;;;22.70;55.25;101363.56;4963400;28;124876;-75
2023/09/13 06:51:44;;;;;;;;;;;;;;;22.71;55.27;101365.28;4962253;28;122844;-76
2023/09/13 06:54:14;;;;;;;;;;;;;;;22.73;55.30;101360.63;4966106;28;113693;-77
2023/09/13 06:56:43;;;;;;;;;;;;;;;22.76;55.26;101370.28;4964556;28;113486;-76
2023/09/13 06:59:14;;;;;;;;;;;;;;;22.78;55.26;101364.75;4957558;28;122880;-75
2023/09/13 07:01:44;;;;;;;;;;;;;;;22.80;55.13;101368.16;4964203;28;124968;-76
2023/09/13 07:04:31;;;;;;;;;;;;;;;22.81;55.23;101369.84;4968884;28;114111;-76
2023/09/13 07:07:07;;;;;;;;;;;;;;;22.83;55.24;101371.44;4961017;28;113238;-76
2023/09/13 07:09:34;;;;;;;;;;;;;;;22.84;55.31;101375.00;4960575;28;124984;-76
2023/09/13 07:12:01;;;;;;;;;;;;;;;22.88;55.38;101381.84;4950945;28;124745;-76
2023/09/13 07:14:28;;;;;;;;;;;;;;;22.88;55.25;101385.38;4966544;28;115080;-76
2023/09/13 07:16:55;;;;;;;;;;;;;;;22.90;55.18;101386.09;4961794;28;114164;-76
2023/09/13 07:19:22;;;;;;;;;;;;;;;22.94;55.47;101383.97;4968733;28;124334;-76
2023/09/13 07:21:49;;;;;;;;;;;;;;;22.96;55.26;101387.41;4968928;28;126117;-76
2023/09/13 07:24:16;;;;;;;;;;;;;;;22.99;55.28;101395.25;4968124;28;114834;-76
2023/09/13 07:26:43;;;;;;;;;;;;;;;23.01;55.38;101398.66;4965397;28;113429;-76
2023/09/13 07:29:10;;;;;;;;;;;;;;;23.03;55.46;101390.41;4957543;28;124210;-76
2023/09/13 07:31:37;;;;;;;;;;;;;;;23.08;55.47;101394.47;4962689;28;124220;-76
2023/09/13 07:34:04;;;;;;;;;;;;;;;23.13;55.36;101392.19;4960351;28;115610;-76
2023/09/13 07:36:31;;;;;;;;;;;;;;;23.18;55.44;101388.22;4961661;28;114577;-76
2023/09/13 07:39:00;;;;;;;;;;;;;;;23.21;55.38;101393.38;4963388;28;124813;-75
2023/09/13 07:41:27;;;;;;;;;;;;;;;23.23;55.27;101391.38;4961294;28;124716;-76
2023/09/13 07:43:54;;;;;;;;;;;;;;;23.23;55.42;101400.34;4972238;28;114356;-76
2023/09/13 07:46:22;;;;;;;;;;;;;;;23.24;55.36;101409.28;4972869;28;114210;-76
2023/09/13 07:48:49;;;;;;;;;;;;;;;23.21;55.19;101436.59;4973696;28;124432;-76
2023/09/13 07:51:16;;;;;;;;;;;;;;;23.11;54.93;101437.44;4972110;28;124157;-76
2023/09/13 07:53:43;;;;;;;;;;;;;;;22.97;54.90;101439.59;4969567;28;114640;-76
2023/09/13 07:56:10;;;;;;;;;;;;;;;22.81;54.85;101450.88;4963420;28;113939;-77
2023/09/13 07:58:37;;;;;;;;;;;;;;;22.63;54.73;101458.75;4963059;28;124440;-76
2023/09/13 08:01:04;;;;;;;;;;;;;;;22.48;54.75;101471.72;4966207;28;125225;-76
2023/09/13 08:03:32;;;;;;;;;;;;;;;22.33;54.77;101485.53;4968181;28;114787;-76
2023/09/13 08:06:03;;;;;;;;;;;;;;;22.17;54.76;101479.72;4969953;28;114621;-76
2023/09/13 08:08:32;;;;;;;;;;;;;;;22.00;54.72;101480.25;4970161;28;125220;-76
2023/09/13 08:10:59;;;;;;;;;;;;;;;21.85;54.84;101491.34;4966382;28;126700;-76
2023/09/13 08:13:26;;;;;;;;;;;;;;;21.73;54.88;101497.72;4964810;28;114106;-76
2023/09/13 08:15:54;;;;;;;;;;;;;;;21.60;54.97;101502.41;4961956;28;113956;-77
2023/09/13 08:18:21;;;;;;;;;;;;;;;21.51;55.02;101515.66;4960051;28;124999;-76
2023/09/13 08:20:48;;;;;;;;;;;;;;;21.47;55.12;101524.94;4961819;28;124174;-76
2023/09/13 08:23:15;;;;;;;;;;;;;;;21.47;55.27;101535.72;4966261;28;115687;-76
2023/09/13 08:25:42;;;;;;;;;;;;;;;21.48;55.44;101532.06;4964175;28;112958;-76
2023/09/13 08:28:09;;;;;;;;;;;;;;;21.49;55.39;101533.81;4969504;28;124538;-76
2023/09/13 08:30:36;;;;;;;;;;;;;;;21.49;55.25;101539.19;4967235;28;125140;-76
2023/09/13 08:33:04;;;;;;;;;;;;;;;21.47;55.39;101551.91;4952201;28;114744;-76
2023/09/13 08:35:31;;;;;;;;;;;;;;;21.47;55.24;101554.59;4968363;28;114198;-76
2023/09/13 08:37:58;;;;;;;;;;;;;;;21.47;55.37;101565.38;4982457;28;124090;-76
2023/09/13 08:40:25;;;;;;;;;;;;;;;21.44;55.12;101568.34;4972235;28;124366;-76
2023/09/13 08:42:53;;;;;;;;;;;;;;;21.42;55.29;101570.28;4971136;28;113845;-76
2023/09/13 08:45:21;;;;;;;;;;;;;;;21.42;55.41;101580.16;4964998;28;113979;-76
2023/09/13 08:47:49;;;;;;;;;;;;;;;21.41;55.23;101576.63;4970673;28;124514;-76
2023/09/13 08:50:29;;;;;;;;;;;;;;;21.41;55.15;101579.31;4967606;28;124233;-76
2023/09/13 08:52:59;;;;;;;;;;;;;;;21.41;55.34;101584.72;4967779;28;114200;-76
2023/09/13 08:55:26;;;;;;;;;;;;;;;21.43;55.42;101588.13;4968678;28;112769;-76
2023/09/13 08:57:54;;;;;;;;;;;;;;;21.49;55.52;101593.09;4969508;28;124854;-76
2023/09/13 09:00:23;;;;;;;;;;;;;;;21.54;55.46;101596.25;4970234;28;124020;-76
2023/09/13 09:02:52;;;;;;;;;;;;;;;21.61;55.34;101603.88;4968343;28;114497;-76
2023/09/13 09:05:22;;;;;;;;;;;;;;;21.61;55.27;101602.03;4954833;28;114393;-76
2023/09/13 09:07:49;;;;;;;;;;;;;;;21.64;55.29;101606.31;4963359;28;124553;-76
2023/09/13 09:10:16;;;;;;;;;;;;;;;21.68;55.30;101615.88;4958244;28;124432;-76
2023/09/13 09:12:46;;;;;;;;;;;;;;;21.71;55.23;101618.34;4959276;28;114111;-76
2023/09/13 09:15:14;;;;;;;;;;;;;;;21.79;55.35;101629.34;4958918;28;114359;-76
2023/09/13 09:17:42;;;;;;;;;;;;;;;21.90;55.49;101640.13;4964586;28;124593;-76
2023/09/13 09:20:09;;;;;;;;;;;;;;;21.99;55.29;101637.69;4967439;28;123996;-76
2023/09/13 09:22:37;;;;;;;;;;;;;;;22.04;55.24;101646.25;4963824;28;114389;-76
2023/09/13 09:25:09;;;;;;;;;;;;;;;22.09;55.19;101638.66;4967341;28;113082;-76
2023/09/13 09:27:38;;;;;;;;;;;;;;;22.14;55.13;101647.25;4961111;28;124636;-76
2023/09/13 09:30:06;;;;;;;;;;;;;;;22.19;55.00;101645.03;4970000;28;124001;-75
2023/09/13 09:32:36;;;;;;;;;;;;;;;22.23;54.94;101649.19;4968837;28;114475;-76
2023/09/13 09:35:06;;;;;;;;;;;;;;;22.26;54.98;101651.66;4949253;28;113018;-76
2023/09/13 09:37:34;;;;;;;;;;;;;;;22.29;54.90;101656.81;4963161;28;123891;-75
2023/09/13 09:40:09;;;;;;;;;;;;;;;22.30;54.84;101663.94;4961284;28;122813;-76
2023/09/13 09:42:39;;;;;;;;;;;;;;;22.29;54.72;101673.00;4958660;28;113436;-76
2023/09/13 09:45:06;;;;;;;;;;;;;;;22.27;54.69;101664.19;4961340;28;115232;-76
2023/09/13 09:47:41;;;;;;;;;;;;;;;22.24;54.59;101669.78;4967623;28;125325;-76
2023/09/13 09:50:10;;;;;;;;;;;;;;;22.21;54.73;101659.25;4956326;28;124961;-76
2023/09/13 09:52:37;;;;;;;;;;;;;;;22.23;54.78;101673.47;4964413;28;114359;-76
2023/09/13 09:55:05;;;;;;;;;;;;;;;22.23;54.69;101657.28;4967529;28;114765;-76
2023/09/13 09:57:32;;;;;;;;;;;;;;;22.23;54.66;101673.47;4962793;28;123566;-76
2023/09/13 10:00:00;;;;;;;;;;;;;;;22.24;54.66;101680.56;4962676;28;124342;-76
2023/09/13 10:02:32;;;;;;;;;;;;;;;22.24;54.56;101675.19;4963978;28;115395;-76
2023/09/13 10:05:00;;;;;;;;;;;;;;;22.24;54.56;101669.78;4948812;28;113963;-76
2023/09/13 10:07:27;;;;;;;;;;;;;;;22.27;54.72;101683.06;4960287;28;123432;-76
2023/09/13 10:09:55;;;;;;;;;;;;;;;22.34;54.78;101675.34;4950975;28;124065;-76
2023/09/13 10:12:22;;;;;;;;;;;;;;;22.39;54.71;101677.66;4950060;28;113526;-76
2023/09/13 10:14:49;;;;;;;;;;;;;;;22.45;54.81;101682.53;4950870;28;113336;-76
2023/09/13 10:17:16;;;;;;;;;;;;;;;22.51;54.66;101676.66;4951503;28;124494;-76
2023/09/13 10:19:46;;;;;;;;;;;;;;;22.60;54.79;101683.97;4967672;28;123233;-76
2023/09/13 10:22:16;;;;;;;;;;;;;;;22.70;54.75;101682.22;4948505;28;114777;-76
2023/09/13 10:24:52;;;;;;;;;;;;;;;22.81;54.74;101672.38;4951559;28;112692;-76
2023/09/13 10:27:22;;;;;;;;;;;;;;;22.88;54.58;101657.34;4966656;28;123292;-75
2023/09/13 10:29:55;;;;;;;;;;;;;;;22.91;54.48;101670.63;4955300;28;123931;-75
2023/09/13 10:32:26;;;;;;;;;;;;;;;22.98;54.56;101690.75;4957450;28;117045;-75
2023/09/13 10:34:55;;;;;;;;;;;;;;;23.08;54.57;101702.50;4960826;28;113949;-75
2023/09/13 10:37:22;;;;;;;;;;;;;;;23.18;54.35;101707.13;4967152;28;123464;-75
2023/09/13 10:39:51;;;;;;;;;;;;;;;23.25;54.42;101708.31;4966614;28;124637;-75
2023/09/13 10:42:19;;;;;;;;;;;;;;;23.34;54.28;101710.25;4973626;28;115164;-75
2023/09/13 10:44:48;;;;;;;;;;;;;;;23.43;54.19;101712.16;4969741;28;113575;-75
2023/09/13 10:47:15;;;;;;;;;;;;;;;23.58;54.56;101714.50;4964543;28;123564;-75
2023/09/13 10:49:42;;;;;;;;;;;;;;;23.71;54.35;101715.16;4967819;28;124682;-75
2023/09/13 10:52:11;;;;;;;;;;;;;;;23.77;54.26;101714.66;4958758;28;116393;-74
2023/09/13 10:54:38;;;;;;;;;;;;;;;23.82;54.21;101723.22;4958979;28;115316;-75
2023/09/13 10:57:06;;;;;;;;;;;;;;;23.81;53.89;101732.34;4966075;28;124083;-75
2023/09/13 10:59:35;;;;;;;;;;;;;;;23.81;53.80;101737.75;4956698;28;122688;-76
2023/09/13 11:02:05;;;;;;;;;;;;;;;23.82;54.03;101734.06;4968215;28;113547;-75
2023/09/13 11:04:32;;;;;;;;;;;;;;;23.81;53.57;101737.75;4964495;28;113595;-75
2023/09/13 11:07:01;;;;;;;;;;;;;;;23.77;53.62;101741.69;4961440;28;125173;-75
2023/09/13 11:09:30;;;;;;;;;;;;;;;23.73;53.40;101745.63;4960781;28;123614;-75
2023/09/13 11:11:58;;;;;;;;;;;;;;;23.70;53.62;101740.50;4974834;28;114276;-76
2023/09/13 11:14:25;;;;;;;;;;;;;;;23.70;53.77;101748.63;4960321;28;114353;-75
2023/09/13 11:16:53;;;;;;;;;;;;;;;23.72;53.67;101749.34;4966066;28;124355;-75
2023/09/13 11:19:29;;;;;;;;;;;;;;;23.74;53.47;101747.38;4965839;28;125106;-75
2023/09/13 11:22:02;;;;;;;;;;;;;;;23.75;53.77;101759.88;4970502;28;114862;-75
2023/09/13 11:24:36;;;;;;;;;;;;;;;23.77;53.49;101763.34;4969488;28;113468;-75
2023/09/13 11:27:23;;;;;;;;;;;;;;;23.76;53.47;101767.03;4969306;28;124642;-75
2023/09/13 11:29:53;;;;;;;;;;;;;;;23.75;53.31;101765.28;4964695;28;124939;-76
2023/09/13 11:32:21;;;;;;;;;;;;;;;23.74;53.51;101774.41;4958798;28;114533;-75
2023/09/13 11:34:59;;;;;;;;;;;;;;;23.75;53.55;101772.56;4977552;28;113073;-75
2023/09/13 11:37:26;;;;;;;;;;;;;;;23.79;53.41;101777.63;4949024;28;124494;-75
2023/09/13 11:39:54;;;;;;;;;;;;;;;23.83;53.51;101783.63;4969278;28;124045;-75
2023/09/13 11:42:26;;;;;;;;;;;;;;;23.85;53.58;101787.91;4969753;28;114389;-75
2023/09/13 11:45:06;;;;;;;;;;;;;;;23.84;53.46;101786.19;4968299;28;114911;-76
2023/09/13 11:47:33;;;;;;;;;;;;;;;23.81;53.09;101797.28;4963764;28;123298;-76
2023/09/13 11:50:03;;;;;;;;;;;;;;;23.78;53.19;101802.91;4957708;28;124498;-75
2023/09/13 11:52:59;;;;;;;;;;;;;;;23.77;53.11;101805.75;4959806;28;114819;-75
2023/09/13 11:55:26;;;;;;;;;;;;;;;23.78;53.24;101808.31;4963589;28;114164;-75
2023/09/13 11:58:03;;;;;;;;;;;;;;;23.83;53.41;101810.69;4967414;28;124011;-75
2023/09/13 12:00:43;;;;;;;;;;;;;;;23.93;53.57;101810.75;4962574;28;124721;-74
2023/09/13 12:03:15;;;;;;;;;;;;;;;24.01;53.55;101819.03;4946324;28;115800;-74
2023/09/13 12:05:48;;;;;;;;;;;;;;;24.06;53.39;101822.22;4958741;28;113626;-75
2023/09/13 12:08:37;;;;;;;;;;;;;;;24.05;53.31;101826.78;4963051;28;124094;-75
2023/09/13 12:11:06;;;;;;;;;;;;;;;24.03;52.97;101822.47;4965044;28;123468;-75
2023/09/13 12:13:44;;;;;;;;;;;;;;;24.00;52.92;101817.34;4962251;28;113569;-75
2023/09/13 12:16:31;;;;;;;;;;;;;;;24.00;53.04;101834.44;4980238;28;112715;-75
2023/09/13 12:18:59;;;;;;;;;;;;;;;24.01;53.23;101824.44;4960904;28;124020;-75
2023/09/13 12:21:26;;;;;;;;;;;;;;;24.05;53.01;101832.19;4958190;28;124539;-75
2023/09/13 12:23:54;;;;;;;;;;;;;;;24.08;53.11;101831.91;4965167;28;115387;-76
2023/09/13 12:26:21;;;;;;;;;;;;;;;24.07;52.93;101834.75;4959878;28;113783;-77
2023/09/13 12:28:48;;;;;;;;;;;;;;;24.04;52.65;101840.44;4966336;28;124115;-76
2023/09/13 12:31:16;;;;;;;;;;;;;;;24.06;53.04;101852.00;4960359;28;124522;-76
2023/09/13 12:33:44;;;;;;;;;;;;;;;24.08;52.81;101852.72;4963986;28;116919;-76
2023/09/13 12:36:11;;;;;;;;;;;;;;;24.10;52.79;101850.72;4961301;28;114592;-76
2023/09/13 12:38:42;;;;;;;;;;;;;;;24.18;53.21;101853.63;4965498;28;124433;-76